createdAt,value
2023-08-11T00:01:42.580Z,100874.22
2023-08-11T00:04:45.098Z,100858.19
2023-08-11T00:07:53.208Z,100850.41
2023-08-11T00:10:55.930Z,100859.53
2023-08-11T00:13:58.261Z,100855.09
2023-08-11T00:17:00.752Z,100839.16
2023-08-11T00:20:05.645Z,100864.94
2023-08-11T00:23:08.408Z,100858.28
2023-08-11T00:26:11.460Z,100833.38
2023-08-11T00:29:13.919Z,100861.75
2023-08-11T00:32:16.286Z,100862.53
2023-08-11T00:35:18.781Z,100864.69
2023-08-11T00:38:24.901Z,100862.81
2023-08-11T00:41:31.417Z,100864.59
2023-08-11T00:44:33.860Z,100858.78
2023-08-11T00:47:36.985Z,100846.69
2023-08-11T00:50:42.195Z,100846.28
2023-08-11T00:53:46.420Z,100856.06
2023-08-11T00:56:49.263Z,100834.31
2023-08-11T00:59:51.861Z,100845.75
2023-08-11T01:02:54.340Z,100833.16
2023-08-11T01:06:14.550Z,100841.16
2023-08-11T01:09:29.496Z,100853.88
2023-08-11T01:12:41.439Z,100857.28
2023-08-11T01:15:49.768Z,100854.75
2023-08-11T01:18:52.445Z,100840.88
2023-08-11T01:21:58.398Z,100854.06
2023-08-11T01:25:00.948Z,100828.22
2023-08-11T01:28:03.812Z,100833.16
2023-08-11T01:31:06.212Z,100833.00
2023-08-11T01:34:08.630Z,100837.38
2023-08-11T01:37:13.512Z,100831.28
2023-08-11T01:40:17.353Z,100848.16
2023-08-11T01:43:20.977Z,100854.91
2023-08-11T01:46:28.434Z,100860.06
2023-08-11T01:49:31.166Z,100834.50
2023-08-11T01:52:36.288Z,100845.16
2023-08-11T01:55:39.222Z,100820.44
2023-08-11T01:58:41.663Z,100817.94
2023-08-11T02:01:45.015Z,100828.88
2023-08-11T02:04:47.675Z,100829.81
2023-08-11T02:07:53.921Z,100841.97
2023-08-11T02:10:56.407Z,100826.34
2023-08-11T02:14:00.282Z,100840.13
2023-08-11T02:17:02.648Z,100831.31
2023-08-11T02:20:19.022Z,100835.44
2023-08-11T02:23:21.432Z,100831.88
2023-08-11T02:26:24.469Z,100827.00
2023-08-11T02:29:26.918Z,100842.16
2023-08-11T02:32:31.485Z,100823.44
2023-08-11T02:35:34.314Z,100805.56
2023-08-11T02:38:36.735Z,100838.59
2023-08-11T02:41:39.087Z,100853.03
2023-08-11T02:44:41.497Z,100831.88
2023-08-11T02:47:44.029Z,100848.44
2023-08-11T02:50:46.577Z,100855.75
2023-08-11T02:53:49.003Z,100862.13
2023-08-11T02:56:51.757Z,100858.94
2023-08-11T02:59:54.716Z,100848.91
2023-08-11T03:02:58.171Z,100847.03
2023-08-11T03:06:01.006Z,100851.78
2023-08-11T03:09:03.718Z,100851.13
2023-08-11T03:12:07.429Z,100863.00
2023-08-11T03:15:10.392Z,100876.50
2023-08-11T03:18:13.894Z,100878.88
2023-08-11T03:21:20.410Z,100867.16
2023-08-11T03:24:25.460Z,100881.03
2023-08-11T03:27:28.822Z,100859.53
2023-08-11T03:30:31.339Z,100882.03
2023-08-11T03:33:33.961Z,100881.00
2023-08-11T03:36:45.480Z,100854.94
2023-08-11T03:39:48.433Z,100872.41
2023-08-11T03:42:50.897Z,100860.84
2023-08-11T03:45:53.414Z,100869.59
2023-08-11T03:48:56.227Z,100868.09
2023-08-11T03:51:58.824Z,100867.09
2023-08-11T03:55:01.364Z,100851.63
2023-08-11T03:58:03.958Z,100849.59
2023-08-11T04:01:07.201Z,100860.53
2023-08-11T04:04:10.991Z,100859.50
2023-08-11T04:07:13.522Z,100870.44
2023-08-11T04:10:16.386Z,100862.50
2023-08-11T04:13:18.865Z,100870.75
2023-08-11T04:16:22.536Z,100883.97
2023-08-11T04:19:25.054Z,100862.59
2023-08-11T04:22:38.168Z,100864.66
2023-08-11T04:25:41.564Z,100868.97
2023-08-11T04:28:44.786Z,100878.06
2023-08-11T04:31:49.922Z,100879.88
2023-08-11T04:34:54.443Z,100873.94
2023-08-11T04:37:57.220Z,100882.84
2023-08-11T04:41:02.890Z,100909.44
2023-08-11T04:44:05.854Z,100888.09
2023-08-11T04:47:08.576Z,100911.19
2023-08-11T04:50:12.832Z,100891.13
2023-08-11T04:53:15.338Z,100924.00
2023-08-11T04:56:17.807Z,100920.59
2023-08-11T04:59:20.442Z,100912.38
2023-08-11T05:02:22.886Z,100930.88
2023-08-11T05:05:25.245Z,100921.88
2023-08-11T05:08:28.130Z,100919.25
2023-08-11T05:11:30.725Z,100941.72
2023-08-11T05:14:33.147Z,100934.69
2023-08-11T05:17:35.693Z,100917.53
2023-08-11T05:20:38.178Z,100937.56
2023-08-11T05:23:40.984Z,100908.63
2023-08-11T05:26:43.529Z,100916.31
2023-08-11T05:29:48.459Z,100939.56
2023-08-11T05:32:51.422Z,100912.03
2023-08-11T05:35:53.942Z,100930.16
2023-08-11T05:38:56.319Z,100928.59
2023-08-11T05:41:59.175Z,100931.13
2023-08-11T05:45:01.586Z,100938.25
2023-08-11T05:48:04.378Z,100905.31
2023-08-11T05:51:06.831Z,100921.31
2023-08-11T05:54:09.274Z,100948.59
2023-08-11T05:57:11.792Z,100948.97
2023-08-11T06:00:15.383Z,100945.47
2023-08-11T06:03:18.848Z,100938.53
2023-08-11T06:06:21.274Z,100937.56
2023-08-11T06:09:23.880Z,100935.91
2023-08-11T06:12:26.313Z,100941.63
2023-08-11T06:15:28.816Z,100951.25
2023-08-11T06:18:31.244Z,100967.06
2023-08-11T06:21:33.718Z,100976.56
2023-08-11T06:24:36.143Z,100961.22
2023-08-11T06:27:38.568Z,100949.59
2023-08-11T06:30:40.961Z,100963.00
2023-08-11T06:33:43.311Z,100954.84
2023-08-11T06:36:49.341Z,100963.00
2023-08-11T06:39:53.610Z,100966.19
2023-08-11T06:42:55.985Z,100984.00
2023-08-11T06:46:01.097Z,100980.72
2023-08-11T06:49:04.160Z,100979.59
2023-08-11T06:52:06.692Z,100993.03
2023-08-11T06:55:09.242Z,100992.28
2023-08-11T06:58:11.694Z,100986.00
2023-08-11T07:01:15.763Z,101000.53
2023-08-11T07:04:18.228Z,100995.19
2023-08-11T07:07:20.612Z,100993.81
2023-08-11T07:10:22.972Z,100990.25
2023-08-11T07:13:25.451Z,101000.44
2023-08-11T07:16:30.194Z,100976.38
2023-08-11T07:19:32.726Z,100993.78
2023-08-11T07:22:35.095Z,100983.19
2023-08-11T07:25:37.569Z,100990.41
2023-08-11T07:28:40.033Z,100982.41
2023-08-11T07:31:42.550Z,101002.25
2023-08-11T07:34:45.025Z,100983.00
2023-08-11T07:37:47.431Z,101005.66
2023-08-11T07:40:49.933Z,100999.38
2023-08-11T07:43:52.474Z,100990.28
2023-08-11T07:46:54.828Z,101006.13
2023-08-11T07:49:58.173Z,100998.22
2023-08-11T07:53:00.738Z,101002.25
2023-08-11T07:56:03.108Z,101009.16
2023-08-11T07:59:05.541Z,101010.81
2023-08-11T08:02:08.821Z,101018.06
2023-08-11T08:05:13.559Z,101014.25
2023-08-11T08:08:16.908Z,101000.00
2023-08-11T08:11:19.441Z,101003.34
2023-08-11T08:14:21.840Z,101019.66
2023-08-11T08:17:24.510Z,101001.16
2023-08-11T08:20:27.568Z,101014.09
2023-08-11T08:23:29.994Z,101014.19
2023-08-11T08:26:32.895Z,101000.41
2023-08-11T08:29:35.387Z,101014.38
2023-08-11T08:32:39.052Z,101015.34
2023-08-11T08:35:41.520Z,101010.41
2023-08-11T08:38:43.914Z,101017.84
2023-08-11T08:41:48.955Z,101021.97
2023-08-11T08:44:53.923Z,101017.97
2023-08-11T08:47:58.492Z,101012.50
2023-08-11T08:51:01.199Z,101019.53
2023-08-11T08:54:03.775Z,101023.09
2023-08-11T08:57:08.105Z,101022.88
2023-08-11T09:00:11.287Z,101011.69
2023-08-11T09:03:14.356Z,101014.53
2023-08-11T09:06:17.459Z,101020.63
2023-08-11T09:09:20.143Z,101011.88
2023-08-11T09:12:22.576Z,101025.53
2023-08-11T09:15:25.093Z,101025.78
2023-08-11T09:18:27.708Z,101012.72
2023-08-11T09:21:30.410Z,101016.34
2023-08-11T09:24:32.783Z,101025.44
2023-08-11T09:27:35.245Z,101024.31
2023-08-11T09:30:37.642Z,101018.38
2023-08-11T09:33:39.987Z,101019.16
2023-08-11T09:36:43.858Z,101008.75
2023-08-11T09:39:46.289Z,101025.56
2023-08-11T09:42:48.648Z,101008.22
2023-08-11T09:45:53.270Z,101021.41
2023-08-11T09:48:55.700Z,101028.09
2023-08-11T09:52:05.252Z,101014.06
2023-08-11T09:55:11.002Z,101006.56
2023-08-11T09:58:15.112Z,101018.91
2023-08-11T10:01:21.730Z,101018.72
2023-08-11T10:04:31.893Z,101009.31
2023-08-11T10:07:38.426Z,101007.66
2023-08-11T10:10:42.646Z,101011.66
2023-08-11T10:13:45.112Z,101007.66
2023-08-11T10:16:48.111Z,101002.53
2023-08-11T10:19:52.090Z,100988.94
2023-08-11T10:22:55.137Z,101019.59
2023-08-11T10:25:57.626Z,100985.69
2023-08-11T10:29:01.220Z,101000.03
2023-08-11T10:32:04.734Z,100983.81
2023-08-11T10:35:08.571Z,100993.53
2023-08-11T10:38:10.948Z,100986.91
2023-08-11T10:41:18.819Z,100988.22
2023-08-11T10:44:28.961Z,100971.09
2023-08-11T10:47:32.284Z,100980.78
2023-08-11T10:50:37.508Z,100970.31
2023-08-11T10:53:40.913Z,100968.44
2023-08-11T10:56:45.884Z,100987.56
2023-08-11T10:59:48.304Z,100984.09
2023-08-11T11:02:51.765Z,100981.88
2023-08-11T11:05:54.174Z,100974.53
2023-08-11T11:08:56.786Z,100973.31
2023-08-11T11:11:59.376Z,100967.59
2023-08-11T11:15:02.272Z,100966.31
2023-08-11T11:18:05.281Z,100962.41
2023-08-11T11:21:07.711Z,100970.78
2023-08-11T11:24:11.397Z,100969.47
2023-08-11T11:27:13.955Z,100965.06
2023-08-11T11:30:16.747Z,100952.63
2023-08-11T11:33:19.229Z,100954.53
2023-08-11T11:36:23.092Z,100956.59
2023-08-11T11:39:26.516Z,100959.38
2023-08-11T11:42:30.433Z,100954.44
2023-08-11T11:45:33.298Z,100963.06
2023-08-11T11:48:36.337Z,100938.88
2023-08-11T11:51:38.769Z,100962.81
2023-08-11T11:54:41.275Z,100954.22
2023-08-11T11:57:43.783Z,100956.28
2023-08-11T12:00:47.326Z,100956.78
2023-08-11T12:03:51.691Z,100954.75
2023-08-11T12:06:54.287Z,100936.97
2023-08-11T12:09:57.015Z,100947.69
2023-08-11T12:13:00.743Z,100940.19
2023-08-11T12:16:03.462Z,100932.59
2023-08-11T12:19:08.970Z,100941.00
2023-08-11T12:22:14.081Z,100929.78
2023-08-11T12:25:17.378Z,100951.28
2023-08-11T12:28:20.757Z,100941.47
2023-08-11T12:31:23.146Z,100937.78
2023-08-11T12:34:25.528Z,100929.81
2023-08-11T12:37:27.973Z,100927.66
2023-08-11T12:40:31.330Z,100947.91
2023-08-11T12:43:33.725Z,100946.38
2023-08-11T12:46:37.558Z,100949.47
2023-08-11T12:49:40.140Z,100920.19
2023-08-11T12:52:42.557Z,100940.69
2023-08-11T12:55:44.959Z,100938.22
2023-08-11T12:58:47.362Z,100926.13
2023-08-11T13:01:49.853Z,100931.59
2023-08-11T13:04:52.270Z,100945.88
2023-08-11T13:07:54.819Z,100924.69
2023-08-11T13:10:57.304Z,100925.34
2023-08-11T13:13:59.910Z,100938.63
2023-08-11T13:17:02.267Z,100922.63
2023-08-11T13:20:07.840Z,100926.59
2023-08-11T13:23:10.222Z,100936.53
2023-08-11T13:26:13.536Z,100931.41
2023-08-11T13:29:15.870Z,100917.16
2023-08-11T13:32:18.243Z,100917.38
2023-08-11T13:35:20.672Z,100914.47
2023-08-11T13:38:23.825Z,100922.59
2023-08-11T13:41:26.229Z,100922.81
2023-08-11T13:44:28.950Z,100929.50
2023-08-11T13:47:31.368Z,100923.44
2023-08-11T13:50:33.868Z,100938.53
2023-08-11T13:53:36.307Z,100919.28
2023-08-11T13:56:38.717Z,100931.91
2023-08-11T13:59:41.157Z,100935.16
2023-08-11T14:02:43.585Z,100920.84
2023-08-11T14:05:46.008Z,100904.13
2023-08-11T14:08:48.467Z,100913.25
2023-08-11T14:11:50.823Z,100916.97
2023-08-11T14:14:53.195Z,100932.53
2023-08-11T14:17:56.748Z,100914.59
2023-08-11T14:20:59.338Z,100924.28
2023-08-11T14:24:01.745Z,100933.63
2023-08-11T14:27:04.280Z,100911.03
2023-08-11T14:30:08.387Z,100923.84
2023-08-11T14:33:11.648Z,100930.50
2023-08-11T14:36:14.251Z,100919.84
2023-08-11T14:39:17.211Z,100908.69
2023-08-11T14:42:19.731Z,100923.88
2023-08-11T14:45:22.159Z,100906.78
2023-08-11T14:48:26.995Z,100914.53
2023-08-11T14:51:30.507Z,100890.63
2023-08-11T14:54:32.882Z,100914.19
2023-08-11T14:57:35.233Z,100897.31
2023-08-11T15:00:37.650Z,100917.69
2023-08-11T15:03:40.290Z,100904.34
2023-08-11T15:06:42.842Z,100909.31
2023-08-11T15:09:46.042Z,100908.31
2023-08-11T15:12:48.446Z,100917.44
2023-08-11T15:15:50.870Z,100908.31
2023-08-11T15:18:53.250Z,100899.09
2023-08-11T15:21:55.725Z,100905.06
2023-08-11T15:25:02.235Z,100918.00
2023-08-11T15:28:06.485Z,100919.84
2023-08-11T15:31:08.855Z,100906.06
2023-08-11T15:34:11.268Z,100912.31
2023-08-11T15:37:13.717Z,100905.56
2023-08-11T15:40:17.101Z,100919.81
2023-08-11T15:43:19.633Z,100915.22
2023-08-11T15:46:22.116Z,100923.50
2023-08-11T15:49:24.805Z,100921.50
2023-08-11T15:52:27.206Z,100919.63
2023-08-11T15:55:36.496Z,100932.41
2023-08-11T15:58:41.201Z,100933.09
2023-08-11T16:01:55.620Z,100932.19
2023-08-11T16:05:06.562Z,100902.84
2023-08-11T16:08:08.988Z,100913.97
2023-08-11T16:11:11.417Z,100918.78
2023-08-11T16:14:13.999Z,100940.00
2023-08-11T16:17:16.410Z,100914.50
2023-08-11T16:20:18.902Z,100936.06
2023-08-11T16:23:21.327Z,100913.66
2023-08-11T16:26:23.799Z,100928.16
2023-08-11T16:29:26.334Z,100927.06
2023-08-11T16:32:28.804Z,100908.66
2023-08-11T16:35:31.219Z,100926.53
2023-08-11T16:38:33.574Z,100916.84
2023-08-11T16:41:36.274Z,100922.66
2023-08-11T16:44:39.917Z,100911.84
2023-08-11T16:47:42.362Z,100930.75
2023-08-11T16:50:46.762Z,100932.81
2023-08-11T16:53:49.129Z,100933.13
2023-08-11T16:56:51.494Z,100929.50
2023-08-11T16:59:53.878Z,100934.69
2023-08-11T17:02:56.316Z,100912.19
2023-08-11T17:05:59.016Z,100933.13
2023-08-11T17:09:01.450Z,100935.59
2023-08-11T17:12:04.245Z,100932.94
2023-08-11T17:15:07.703Z,100932.47
2023-08-11T17:18:10.407Z,100940.97
2023-08-11T17:21:14.095Z,100940.38
2023-08-11T17:24:16.603Z,100942.16
2023-08-11T17:27:18.988Z,100943.84
2023-08-11T17:30:21.442Z,100930.66
2023-08-11T17:33:23.949Z,100951.16
2023-08-11T17:36:27.467Z,100936.50
2023-08-11T17:39:29.982Z,100933.94
2023-08-11T17:42:32.438Z,100949.91
2023-08-11T17:45:34.779Z,100968.97
2023-08-11T17:48:38.342Z,100971.75
2023-08-11T17:51:40.709Z,100965.06
2023-08-11T17:54:43.039Z,100964.03
2023-08-11T17:57:45.380Z,100956.13
2023-08-11T18:00:47.832Z,100982.94
2023-08-11T18:03:50.420Z,100957.38
2023-08-11T18:06:54.185Z,100980.94
2023-08-11T18:09:56.510Z,100982.63
2023-08-11T18:12:58.885Z,100967.03
2023-08-11T18:16:01.249Z,100973.38
2023-08-11T18:19:03.811Z,100956.94
2023-08-11T18:22:06.310Z,100998.03
2023-08-11T18:25:08.986Z,101007.75
2023-08-11T18:28:11.580Z,101013.56
2023-08-11T18:31:14.091Z,101013.16
2023-08-11T18:34:16.457Z,101002.28
2023-08-11T18:37:19.122Z,100985.47
2023-08-11T18:40:21.723Z,101013.22
2023-08-11T18:43:24.074Z,101002.88
2023-08-11T18:46:26.469Z,101001.13
2023-08-11T18:49:29.227Z,101005.34
2023-08-11T18:52:31.614Z,101032.72
2023-08-11T18:55:34.090Z,101013.34
2023-08-11T18:58:36.474Z,101032.84
2023-08-11T19:01:39.858Z,101027.28
2023-08-11T19:04:42.260Z,101034.75
2023-08-11T19:07:44.681Z,101041.59
2023-08-11T19:10:47.043Z,101040.34
2023-08-11T19:13:49.742Z,101037.06
2023-08-11T19:16:52.249Z,101055.94
2023-08-11T19:19:54.628Z,101049.22
2023-08-11T19:22:57.453Z,101025.88
2023-08-11T19:25:59.811Z,101043.94
2023-08-11T19:29:02.365Z,101047.91
2023-08-11T19:32:05.347Z,101023.19
2023-08-11T19:35:07.983Z,101026.06
2023-08-11T19:38:11.134Z,101046.31
2023-08-11T19:41:13.527Z,101051.50
2023-08-11T19:44:16.158Z,101030.22
2023-08-11T19:47:18.566Z,101031.38
2023-08-11T19:50:23.116Z,101025.34
2023-08-11T19:53:25.738Z,101037.00
2023-08-11T19:56:28.118Z,101025.16
2023-08-11T19:59:30.468Z,101018.50
2023-08-11T20:02:32.856Z,101043.34
2023-08-11T20:05:42.086Z,101043.03
2023-08-11T20:08:44.467Z,101042.59
2023-08-11T20:11:46.877Z,101030.56
2023-08-11T20:14:49.298Z,101023.31
2023-08-11T20:17:51.734Z,101023.66
2023-08-11T20:20:54.135Z,101024.59
2023-08-11T20:23:56.697Z,100998.31
2023-08-11T20:26:59.776Z,101050.03
2023-08-11T20:30:02.614Z,101042.38
2023-08-11T20:33:05.148Z,101042.56
2023-08-11T20:36:07.872Z,101044.41
2023-08-11T20:39:10.287Z,101044.50
2023-08-11T20:42:12.726Z,101033.88
2023-08-11T20:45:15.130Z,101019.78
2023-08-11T20:48:17.643Z,101041.75
2023-08-11T20:51:20.037Z,101049.41
2023-08-11T20:54:22.539Z,101013.97
2023-08-11T20:57:24.951Z,101038.06
2023-08-11T21:00:27.341Z,101022.84
2023-08-11T21:03:29.738Z,101017.19
2023-08-11T21:06:32.130Z,101041.03
2023-08-11T21:09:34.538Z,101019.34
2023-08-11T21:12:36.969Z,101039.84
2023-08-11T21:15:39.908Z,101022.56
2023-08-11T21:18:42.346Z,101023.22
2023-08-11T21:21:46.206Z,101044.47
2023-08-11T21:24:48.654Z,101048.16
2023-08-11T21:27:51.022Z,101034.72
2023-08-11T21:31:07.625Z,101055.06
2023-08-11T21:34:16.265Z,101048.53
2023-08-11T21:37:18.592Z,101050.63
2023-08-11T21:40:21.290Z,101033.50
2023-08-11T21:43:23.682Z,101046.09
2023-08-11T21:46:26.214Z,101049.88
2023-08-11T21:49:30.364Z,101053.78
2023-08-11T21:52:32.909Z,101053.09
2023-08-11T21:55:35.844Z,101052.50
2023-08-11T21:58:38.325Z,101024.66
2023-08-11T22:01:40.773Z,101035.28
2023-08-11T22:04:46.111Z,101053.25
2023-08-11T22:07:48.530Z,101058.25
2023-08-11T22:10:51.161Z,101043.41
2023-08-11T22:13:53.545Z,101067.25
2023-08-11T22:16:58.746Z,101066.50
2023-08-11T22:20:01.089Z,101039.97
2023-08-11T22:23:03.651Z,101069.03
2023-08-11T22:26:06.014Z,101049.84
2023-08-11T22:29:08.404Z,101072.09
2023-08-11T22:32:10.797Z,101056.19
2023-08-11T22:35:13.272Z,101068.91
2023-08-11T22:38:15.780Z,101068.28
2023-08-11T22:41:18.197Z,101023.31
2023-08-11T22:44:20.567Z,101044.19
2023-08-11T22:47:23.655Z,101070.25
2023-08-11T22:50:26.034Z,101066.16
2023-08-11T22:53:28.399Z,101064.25
2023-08-11T22:56:30.776Z,101072.09
2023-08-11T22:59:33.842Z,101041.63
2023-08-11T23:02:42.030Z,101061.78
2023-08-11T23:05:44.580Z,101039.97
2023-08-11T23:08:46.932Z,101068.59
2023-08-11T23:11:49.362Z,101066.69
2023-08-11T23:14:55.253Z,101061.19
2023-08-11T23:17:58.811Z,101067.16
2023-08-11T23:21:01.339Z,101063.63
2023-08-11T23:24:03.998Z,101050.25
2023-08-11T23:27:06.668Z,101048.56
2023-08-11T23:30:10.709Z,101057.59
2023-08-11T23:33:13.162Z,101058.78
2023-08-11T23:36:15.966Z,101042.13
2023-08-11T23:39:18.965Z,101052.91
2023-08-11T23:42:21.523Z,101044.78
2023-08-11T23:45:23.922Z,101043.72
2023-08-11T23:48:26.608Z,101067.09
2023-08-11T23:51:29.036Z,101052.31
2023-08-11T23:54:34.771Z,101062.91
2023-08-11T23:57:37.285Z,101064.75
